Aviation Digital Data Service (ADDS)

Output produced by METARs form (1221 UTC 16 July 2019)
found at http://www.aviationweather.gov/metar/data/
 
METAR text: FWKI 161200Z 10018KT 9999 BKN035 21/06 Q1025 NOSIG
Conditions at: FWKI (KAMUZU INTL AIRP, MW) observed 1200 UTC 16 July 2019
Temperature: 21.0°C (70°F)
Dewpoint: 6.0°C (43°F) [RH = 38%]
Pressure (altimeter): 30.27 inches Hg (1025.0 mb)
Winds: from the E (100 degrees) at 21 MPH (18 knots; 9.3 m/s)
Visibility: 6 or more miles (10+ km)
Ceiling: 3500 feet AGL
Clouds: broken clouds at 3500 feet AGL
Weather: no significant weather observed at this time

METAR text: FWKI 161100Z 10011KT 9999 BKN035 20/06 Q1026 NOSIG
Conditions at: FWKI (KAMUZU INTL AIRP, MW) observed 1100 UTC 16 July 2019
Temperature: 20.0°C (68°F)
Dewpoint: 6.0°C (43°F) [RH = 40%]
Pressure (altimeter): 30.30 inches Hg (1026.0 mb)
Winds: from the E (100 degrees) at 13 MPH (11 knots; 5.7 m/s)
Visibility: 6 or more miles (10+ km)
Ceiling: 3500 feet AGL
Clouds: broken clouds at 3500 feet AGL
Weather: no significant weather observed at this time

METAR text: FWKI 161000Z 10013KT 9999 BKN030 19/08 Q1027 NOSIG
Conditions at: FWKI (KAMUZU INTL AIRP, MW) observed 1000 UTC 16 July 2019
Temperature: 19.0°C (66°F)
Dewpoint: 8.0°C (46°F) [RH = 49%]
Pressure (altimeter): 30.32 inches Hg (1027.0 mb)
Winds: from the E (100 degrees) at 15 MPH (13 knots; 6.7 m/s)
Visibility: 6 or more miles (10+ km)
Ceiling: 3000 feet AGL
Clouds: broken clouds at 3000 feet AGL
Weather: no significant weather observed at this time

METAR text: FWKI 160900Z 09011KT 9999 BKN030 19/09 Q1027 NOSIG
Conditions at: FWKI (KAMUZU INTL AIRP, MW) observed 0900 UTC 16 July 2019
Temperature: 19.0°C (66°F)
Dewpoint: 9.0°C (48°F) [RH = 52%]
Pressure (altimeter): 30.32 inches Hg (1027.0 mb)
Winds: from the E (90 degrees) at 13 MPH (11 knots; 5.7 m/s)
Visibility: 6 or more miles (10+ km)
Ceiling: 3000 feet AGL
Clouds: broken clouds at 3000 feet AGL
Weather: no significant weather observed at this time

METAR text: FWKI 160800Z 10015KT 9999 BKN025 17/09 Q1028 NOSIG
Conditions at: FWKI (KAMUZU INTL AIRP, MW) observed 0800 UTC 16 July 2019
Temperature: 17.0°C (63°F)
Dewpoint: 9.0°C (48°F) [RH = 59%]
Pressure (altimeter): 30.35 inches Hg (1028.0 mb)
Winds: from the E (100 degrees) at 17 MPH (15 knots; 7.7 m/s)
Visibility: 6 or more miles (10+ km)
Ceiling: 2500 feet AGL
Clouds: broken clouds at 2500 feet AGL
Weather: no significant weather observed at this time

METAR text: FWKI 160700Z 12011KT 9999 SCT025 17/08 Q1028 NOSIG
Conditions at: FWKI (KAMUZU INTL AIRP, MW) observed 0700 UTC 16 July 2019
Temperature: 17.0°C (63°F)
Dewpoint: 8.0°C (46°F) [RH = 55%]
Pressure (altimeter): 30.35 inches Hg (1028.0 mb)
Winds: from the ESE (120 degrees) at 13 MPH (11 knots; 5.7 m/s)
Visibility: 6 or more miles (10+ km)
Ceiling: at least 12,000 feet AGL
Clouds: scattered clouds at 2500 feet AGL
Weather: no significant weather observed at this time

METAR text: FWKI 160600Z VRB02KT 9999 FEW020 14/08 Q1027 NOSIG
Conditions at: FWKI (KAMUZU INTL AIRP, MW) observed 0600 UTC 16 July 2019
Temperature: 14.0°C (57°F)
Dewpoint: 8.0°C (46°F) [RH = 67%]
Pressure (altimeter): 30.32 inches Hg (1027.0 mb)
Winds: variable direction winds at 2 MPH (2 knots; 1.0 m/s)
Visibility: 6 or more miles (10+ km)
Ceiling: at least 12,000 feet AGL
Clouds: few clouds at 2000 feet AGL
Weather: no significant weather observed at this time

METAR text: FWKI 160500Z 00000KT CAVOK 11/09 Q1026 NOSIG
Conditions at: FWKI (KAMUZU INTL AIRP, MW) observed 0500 UTC 16 July 2019
Temperature: 11.0°C (52°F)
Dewpoint: 9.0°C (48°F) [RH = 87%]
Pressure (altimeter): 30.30 inches Hg (1026.0 mb)
Winds: calm
Visibility: 6 or more miles (10+ km)
Ceiling: ceiling and visibility are OK
Clouds: unknown
Weather: no significant weather observed at this time

METAR text: FWKI 160400Z 00000KT CAVOK 10/09 Q1026 BECMG 7000 BCFG
Conditions at: FWKI (KAMUZU INTL AIRP, MW) observed 0400 UTC 16 July 2019
Temperature: 10.0°C (50°F)
Dewpoint: 9.0°C (48°F) [RH = 93%]
Pressure (altimeter): 30.30 inches Hg (1026.0 mb)
Winds: calm
Visibility: 6 or more miles (10+ km)
Ceiling: ceiling and visibility are OK
Clouds: unknown
Weather: no significant weather observed at this time

METAR text: FWKI 151600Z 10004KT CAVOK 17/07 Q1024 NOSIG
Conditions at: FWKI (KAMUZU INTL AIRP, MW) observed 1600 UTC 15 July 2019
Temperature: 17.0°C (63°F)
Dewpoint: 7.0°C (45°F) [RH = 52%]
Pressure (altimeter): 30.24 inches Hg (1024.0 mb)
Winds: from the E (100 degrees) at 5 MPH (4 knots; 2.1 m/s)
Visibility: 6 or more miles (10+ km)
Ceiling: ceiling and visibility are OK
Clouds: unknown
Weather: no significant weather observed at this time

METAR text: FWKI 151500Z 09007KT CAVOK 18/07 Q1024 NOSIG
Conditions at: FWKI (KAMUZU INTL AIRP, MW) observed 1500 UTC 15 July 2019
Temperature: 18.0°C (64°F)
Dewpoint: 7.0°C (45°F) [RH = 49%]
Pressure (altimeter): 30.24 inches Hg (1024.0 mb)
Winds: from the E (90 degrees) at 8 MPH (7 knots; 3.6 m/s)
Visibility: 6 or more miles (10+ km)
Ceiling: ceiling and visibility are OK
Clouds: unknown
Weather: no significant weather observed at this time

METAR text: FWKI 151400Z 09005KT CAVOK 19/17 Q1024 NOSIG
Conditions at: FWKI (KAMUZU INTL AIRP, MW) observed 1400 UTC 15 July 2019
Temperature: 19.0°C (66°F)
Dewpoint: 17.0°C (63°F) [RH = 88%]
Pressure (altimeter): 30.24 inches Hg (1024.0 mb)
Winds: from the E (90 degrees) at 6 MPH (5 knots; 2.6 m/s)
Visibility: 6 or more miles (10+ km)
Ceiling: ceiling and visibility are OK
Clouds: unknown
Weather: no significant weather observed at this time

METAR text: FWKI 151300Z 12013KT 9999 SCT035 20/07 Q1024 NOSIG
Conditions at: FWKI (KAMUZU INTL AIRP, MW) observed 1300 UTC 15 July 2019
Temperature: 20.0°C (68°F)
Dewpoint: 7.0°C (45°F) [RH = 43%]
Pressure (altimeter): 30.24 inches Hg (1024.0 mb)
Winds: from the ESE (120 degrees) at 15 MPH (13 knots; 6.7 m/s)
Visibility: 6 or more miles (10+ km)
Ceiling: at least 12,000 feet AGL
Clouds: scattered clouds at 3500 feet AGL
Weather: no significant weather observed at this time

METAR text: FWKI 151200Z 11015KT 9999 SCT035 20/07 Q1024 NOSIG
Conditions at: FWKI (KAMUZU INTL AIRP, MW) observed 1200 UTC 15 July 2019
Temperature: 20.0°C (68°F)
Dewpoint: 7.0°C (45°F) [RH = 43%]
Pressure (altimeter): 30.24 inches Hg (1024.0 mb)
Winds: from the ESE (110 degrees) at 17 MPH (15 knots; 7.7 m/s)
Visibility: 6 or more miles (10+ km)
Ceiling: at least 12,000 feet AGL
Clouds: scattered clouds at 3500 feet AGL
Weather: no significant weather observed at this time

METAR text: FWKI 151100Z 12008KT 9999 BKN035 20/08 Q1025 NOSIG
Conditions at: FWKI (KAMUZU INTL AIRP, MW) observed 1100 UTC 15 July 2019
Temperature: 20.0°C (68°F)
Dewpoint: 8.0°C (46°F) [RH = 46%]
Pressure (altimeter): 30.27 inches Hg (1025.0 mb)
Winds: from the ESE (120 degrees) at 9 MPH (8 knots; 4.1 m/s)
Visibility: 6 or more miles (10+ km)
Ceiling: 3500 feet AGL
Clouds: broken clouds at 3500 feet AGL
Weather: no significant weather observed at this time

METAR text: FWKI 151000Z 07014KT 9999 SCT030 20/08 Q1025 NOSIG
Conditions at: FWKI (KAMUZU INTL AIRP, MW) observed 1000 UTC 15 July 2019
Temperature: 20.0°C (68°F)
Dewpoint: 8.0°C (46°F) [RH = 46%]
Pressure (altimeter): 30.27 inches Hg (1025.0 mb)
Winds: from the ENE (70 degrees) at 16 MPH (14 knots; 7.2 m/s)
Visibility: 6 or more miles (10+ km)
Ceiling: at least 12,000 feet AGL
Clouds: scattered clouds at 3000 feet AGL
Weather: no significant weather observed at this time

METAR text: FWKI 150900Z 08011KT 9999 BKN030 18/10 Q1026 NOSIG
Conditions at: FWKI (KAMUZU INTL AIRP, MW) observed 0900 UTC 15 July 2019
Temperature: 18.0°C (64°F)
Dewpoint: 10.0°C (50°F) [RH = 59%]
Pressure (altimeter): 30.30 inches Hg (1026.0 mb)
Winds: from the E (80 degrees) at 13 MPH (11 knots; 5.7 m/s)
Visibility: 6 or more miles (10+ km)
Ceiling: 3000 feet AGL
Clouds: broken clouds at 3000 feet AGL
Weather: no significant weather observed at this time

METAR text: FWKI 150800Z 12015KT 9999 BKN028 18/10 Q1026 NOSIG
Conditions at: FWKI (KAMUZU INTL AIRP, MW) observed 0800 UTC 15 July 2019
Temperature: 18.0°C (64°F)
Dewpoint: 10.0°C (50°F) [RH = 59%]
Pressure (altimeter): 30.30 inches Hg (1026.0 mb)
Winds: from the ESE (120 degrees) at 17 MPH (15 knots; 7.7 m/s)
Visibility: 6 or more miles (10+ km)
Ceiling: 2800 feet AGL
Clouds: broken clouds at 2800 feet AGL
Weather: no significant weather observed at this time

METAR text: FWKI 150700Z 09015KT 9999 BKN025 17/11 Q1026 NOSIG
Conditions at: FWKI (KAMUZU INTL AIRP, MW) observed 0700 UTC 15 July 2019
Temperature: 17.0°C (63°F)
Dewpoint: 11.0°C (52°F) [RH = 68%]
Pressure (altimeter): 30.30 inches Hg (1026.0 mb)
Winds: from the E (90 degrees) at 17 MPH (15 knots; 7.7 m/s)
Visibility: 6 or more miles (10+ km)
Ceiling: 2500 feet AGL
Clouds: broken clouds at 2500 feet AGL
Weather: no significant weather observed at this time

METAR text: FWKI 150600Z 27003KT CAVOK 12/00 Q1025 NOSIG
Conditions at: FWKI (KAMUZU INTL AIRP, MW) observed 0600 UTC 15 July 2019
Temperature: 12.0°C (54°F)
Dewpoint: 0.0°C (32°F) [RH = 44%]
Pressure (altimeter): 30.27 inches Hg (1025.0 mb)
Winds: from the W (270 degrees) at 3 MPH (3 knots; 1.5 m/s)
Visibility: 6 or more miles (10+ km)
Ceiling: ceiling and visibility are OK
Clouds: unknown
Weather: no significant weather observed at this time

METAR text: FWKI 150500Z 27003KT 6000 BCFG NSC 09/07 Q1024 BECMG CAVOK
Conditions at: FWKI (KAMUZU INTL AIRP, MW) observed 0500 UTC 15 July 2019
Temperature: 9.0°C (48°F)
Dewpoint: 7.0°C (45°F) [RH = 87%]
Pressure (altimeter): 30.24 inches Hg (1024.0 mb)
Winds: from the W (270 degrees) at 3 MPH (3 knots; 1.5 m/s)
Visibility: 4 miles ( 6 km)
Ceiling: at least 12,000 feet AGL
Clouds: sky clear below 12,000 feet AGL
Weather: BCFG  (patches of fog)

METAR text: FWKI 150400Z 30003KT CAVOK 08/06 Q1024 BECMG 5000
Conditions at: FWKI (KAMUZU INTL AIRP, MW) observed 0400 UTC 15 July 2019
Temperature: 8.0°C (46°F)
Dewpoint: 6.0°C (43°F) [RH = 87%]
Pressure (altimeter): 30.24 inches Hg (1024.0 mb)
Winds: from the WNW (300 degrees) at 3 MPH (3 knots; 1.5 m/s)
Visibility: 6 or more miles (10+ km)
Ceiling: ceiling and visibility are OK
Clouds: unknown
Weather: no significant weather observed at this time

METAR text: FWKI 150100Z 00000KT CAVOK 12/08 Q1023 NOSIG
Conditions at: FWKI (KAMUZU INTL AIRP, MW) observed 0100 UTC 15 July 2019
Temperature: 12.0°C (54°F)
Dewpoint: 8.0°C (46°F) [RH = 76%]
Pressure (altimeter): 30.21 inches Hg (1023.0 mb)
Winds: calm
Visibility: 6 or more miles (10+ km)
Ceiling: ceiling and visibility are OK
Clouds: unknown
Weather: no significant weather observed at this time

Forecast for: FWKI (KAMUZU INTL AIRP, MW)
Text: TAF FWKI 161000Z 1612/1718 10010KT 9999 BKN030
Forecast period: 1200 to 1300 UTC 16 July 2019
Forecast type: FROM: standard forecast or significant change
Winds: from the E (100 degrees) at 12 MPH (10 knots; 5.1 m/s)
Visibility: 6 or more miles 10+ km)
Ceiling: 3000 feet AGL
Clouds: broken clouds at 3000 feet AGL
Weather: no significant weather forecast for this period
Text: FM161300 09010KT CAVOK
Forecast period: 1300 UTC 16 July 2019 to 0700 UTC 17 July 2019
Forecast type: FROM: standard forecast or significant change
Winds: from the E (90 degrees) at 12 MPH (10 knots; 5.1 m/s)
Visibility: 6 or more miles 10+ km)
Ceiling: unknown
Clouds: missing
Weather: NSW  (no significant weather)
Text: BECMG 1707/1709 08010KT 9999 FEW020
Forecast period: 0700 to 1400 UTC 17 July 2019
Forecast type: BECOMING: Conditions expected to become as follows by 0900 UTC 17 July 2019
Winds: from the E (80 degrees) at 12 MPH (10 knots; 5.1 m/s)
Visibility: 6 or more miles 10+ km)
Ceiling: at least 12,000 feet AGL
Clouds: few clouds at 2000 feet AGL
Weather: NSW  (no significant weather)
Text: FM171400 07007KT CAVOK
Forecast period: 1400 to 1800 UTC 17 July 2019
Forecast type: FROM: standard forecast or significant change
Winds: from the ENE (70 degrees) at 8 MPH (7 knots; 3.6 m/s)
Visibility: 6 or more miles 10+ km)
Ceiling: unknown
Clouds: missing
Weather: NSW  (no significant weather)